createdAt,value
2023-04-18T00:00:21.527Z,4.37
2023-04-18T00:03:23.986Z,3.87
2023-04-18T00:06:26.754Z,5.40
2023-04-18T00:09:28.738Z,4.60
2023-04-18T00:12:32.011Z,4.50
2023-04-18T00:15:35.583Z,4.50
2023-04-18T00:18:37.624Z,3.40
2023-04-18T00:21:45.046Z,5.15
2023-04-18T00:24:47.219Z,3.53
2023-04-18T00:27:49.425Z,3.40
2023-04-18T00:30:51.780Z,4.17
2023-04-18T00:33:53.701Z,4.62
2023-04-18T00:36:55.553Z,5.00
2023-04-18T00:39:57.881Z,5.07
2023-04-18T00:43:00.310Z,4.83
2023-04-18T00:46:02.217Z,3.50
2023-04-18T00:49:04.181Z,5.62
2023-04-18T00:52:06.591Z,2.30
2023-04-18T00:55:09.461Z,5.75
2023-04-18T00:58:12.179Z,4.90
2023-04-18T01:01:14.093Z,3.90
2023-04-18T01:04:16.358Z,6.18
2023-04-18T01:07:18.477Z,4.53
2023-04-18T01:10:20.681Z,4.15
2023-04-18T01:13:22.646Z,5.90
2023-04-18T01:16:24.702Z,7.00
2023-04-18T01:19:27.293Z,5.95
2023-04-18T01:22:31.497Z,4.22
2023-04-18T01:25:34.368Z,5.87
2023-04-18T01:28:37.304Z,6.20
2023-04-18T01:31:41.507Z,3.43
2023-04-18T01:34:43.732Z,4.93
2023-04-18T01:37:46.022Z,5.68
2023-04-18T01:40:48.130Z,5.97
2023-04-18T01:43:50.220Z,6.07
2023-04-18T01:46:52.174Z,4.23
2023-04-18T01:49:54.158Z,3.45
2023-04-18T01:52:56.145Z,4.95
2023-04-18T01:55:58.654Z,3.97
2023-04-18T01:59:00.563Z,4.93
2023-04-18T02:02:02.800Z,5.80
2023-04-18T02:05:05.116Z,5.00
2023-04-18T02:08:07.088Z,4.90
2023-04-18T02:11:08.996Z,5.90
2023-04-18T02:14:11.010Z,6.77
2023-04-18T02:17:12.876Z,6.20
2023-04-18T02:20:14.806Z,7.07
2023-04-18T02:23:16.833Z,6.28
2023-04-18T02:26:18.716Z,4.22
2023-04-18T02:29:21.163Z,6.40
2023-04-18T02:32:23.107Z,6.30
2023-04-18T02:35:26.202Z,7.00
2023-04-18T02:38:28.477Z,6.15
2023-04-18T02:41:31.286Z,6.00
2023-04-18T02:44:33.152Z,2.97
2023-04-18T02:47:46.939Z,6.03
2023-04-18T02:50:53.730Z,4.40
2023-04-18T02:53:56.350Z,6.32
2023-04-18T02:56:58.286Z,6.78
2023-04-18T03:00:00.242Z,7.37
2023-04-18T03:03:02.278Z,8.77
2023-04-18T03:06:04.469Z,7.62
2023-04-18T03:09:06.410Z,7.75
2023-04-18T03:12:08.490Z,7.20
2023-04-18T03:15:11.481Z,6.43
2023-04-18T03:18:13.823Z,5.33
2023-04-18T03:21:16.155Z,5.85
2023-04-18T03:24:18.400Z,7.25
2023-04-18T03:27:20.271Z,7.57
2023-04-18T03:30:22.628Z,6.67
2023-04-18T03:33:24.746Z,5.73
2023-04-18T03:36:28.766Z,6.05
2023-04-18T03:39:31.401Z,6.93
2023-04-18T03:42:33.329Z,5.93
2023-04-18T03:45:35.395Z,4.23
2023-04-18T03:48:37.575Z,4.30
2023-04-18T03:51:47.397Z,6.80
2023-04-18T03:54:49.322Z,5.55
2023-04-18T03:57:51.575Z,4.70
2023-04-18T04:00:53.693Z,7.57
2023-04-18T04:03:55.669Z,4.83
2023-04-18T04:06:58.190Z,5.35
2023-04-18T04:10:00.759Z,4.72
2023-04-18T04:13:02.896Z,6.82
2023-04-18T04:16:05.416Z,4.03
2023-04-18T04:19:07.347Z,2.63
2023-04-18T04:22:09.910Z,4.95
2023-04-18T04:25:13.898Z,4.78
2023-04-18T04:28:16.086Z,5.70
2023-04-18T04:31:18.842Z,5.60
2023-04-18T04:34:21.666Z,6.63
2023-04-18T04:37:23.881Z,5.35
2023-04-18T04:40:25.836Z,6.50
2023-04-18T04:43:28.910Z,4.60
2023-04-18T04:46:31.198Z,6.23
2023-04-18T04:49:33.088Z,5.50
2023-04-18T04:52:35.215Z,3.47
2023-04-18T04:55:38.641Z,3.67
2023-04-18T04:58:40.620Z,4.05
2023-04-18T05:01:45.627Z,6.20
2023-04-18T05:04:47.882Z,5.90
2023-04-18T05:07:49.929Z,5.18
2023-04-18T05:10:51.865Z,4.93
2023-04-18T05:13:53.866Z,5.80
2023-04-18T05:16:56.028Z,4.67
2023-04-18T05:19:58.026Z,5.00
2023-04-18T05:23:00.098Z,4.90
2023-04-18T05:26:02.003Z,4.72
2023-04-18T05:29:03.959Z,3.83
2023-04-18T05:32:09.040Z,4.97
2023-04-18T05:35:11.030Z,4.13
2023-04-18T05:38:13.162Z,4.47
2023-04-18T05:41:15.179Z,3.58
2023-04-18T05:44:18.302Z,4.85
2023-04-18T05:47:20.571Z,3.90
2023-04-18T05:50:23.291Z,2.73
2023-04-18T05:53:25.369Z,3.75
2023-04-18T05:56:27.445Z,4.65
2023-04-18T05:59:29.411Z,4.10
2023-04-18T06:02:31.679Z,4.33
2023-04-18T06:05:52.285Z,4.10
2023-04-18T06:08:54.810Z,4.30
2023-04-18T06:11:58.051Z,3.72
2023-04-18T06:15:00.176Z,3.60
2023-04-18T06:18:02.210Z,5.00
2023-04-18T06:21:04.347Z,3.90
2023-04-18T06:24:07.068Z,4.57
2023-04-18T06:27:17.532Z,4.20
2023-04-18T06:30:26.373Z,3.70
2023-04-18T06:33:28.349Z,4.80
2023-04-18T06:36:30.466Z,3.93
2023-04-18T06:39:32.382Z,4.50
2023-04-18T06:42:34.321Z,3.75
2023-04-18T06:45:36.393Z,2.50
2023-04-18T06:48:38.585Z,3.07
2023-04-18T06:51:40.935Z,3.57
2023-04-18T06:54:42.868Z,1.95
2023-04-18T06:57:44.957Z,3.20
2023-04-18T07:00:51.909Z,4.07
2023-04-18T07:03:54.038Z,3.67
2023-04-18T07:06:56.500Z,3.47
2023-04-18T07:09:58.754Z,3.10
2023-04-18T07:13:00.756Z,2.42
2023-04-18T07:16:03.356Z,3.65
2023-04-18T07:19:06.751Z,3.73
2023-04-18T07:22:08.894Z,3.53
2023-04-18T07:25:10.873Z,4.10
2023-04-18T07:28:12.826Z,3.70
2023-04-18T07:31:16.723Z,3.80
2023-04-18T07:34:18.846Z,2.97
2023-04-18T07:37:21.609Z,3.80
2023-04-18T07:40:23.597Z,3.70
2023-04-18T07:43:26.517Z,3.05
2023-04-18T07:46:29.028Z,3.75
2023-04-18T07:49:31.035Z,3.90
2023-04-18T07:52:33.248Z,3.70
2023-04-18T07:55:35.390Z,3.33
2023-04-18T07:58:37.572Z,3.45
2023-04-18T08:01:39.660Z,2.92
2023-04-18T08:04:41.820Z,4.22
2023-04-18T08:07:43.780Z,3.87
2023-04-18T08:10:45.740Z,3.92
2023-04-18T08:13:47.697Z,4.20
2023-04-18T08:16:49.661Z,3.83
2023-04-18T08:19:51.748Z,4.10
2023-04-18T08:23:06.110Z,2.90
2023-04-18T08:26:10.730Z,4.18
2023-04-18T08:29:13.163Z,3.72
2023-04-18T08:32:15.307Z,2.22
2023-04-18T08:35:17.445Z,3.97
2023-04-18T08:38:21.352Z,2.23
2023-04-18T08:41:24.212Z,2.90
2023-04-18T08:44:29.580Z,2.42
2023-04-18T08:47:31.963Z,3.33
2023-04-18T08:50:34.172Z,3.78
2023-04-18T08:53:36.191Z,3.40
2023-04-18T08:56:38.117Z,3.45
2023-04-18T08:59:43.133Z,2.90
2023-04-18T09:02:46.952Z,4.28
2023-04-18T09:06:08.540Z,4.40
2023-04-18T09:09:10.666Z,5.43
2023-04-18T09:12:15.031Z,5.15
2023-04-18T09:15:23.811Z,5.35
2023-04-18T09:18:25.778Z,4.57
2023-04-18T09:21:28.090Z,2.57
2023-04-18T09:24:32.535Z,3.10
2023-04-18T09:27:35.157Z,2.55
2023-04-18T09:30:41.219Z,2.90
2023-04-18T09:33:54.563Z,3.25
2023-04-18T09:37:13.984Z,3.40
2023-04-18T09:40:20.475Z,3.23
2023-04-18T09:43:22.543Z,3.30
2023-04-18T09:46:25.903Z,3.62
2023-04-18T09:49:28.464Z,3.10
2023-04-18T09:52:39.690Z,3.57
2023-04-18T09:55:42.843Z,3.17
2023-04-18T09:58:47.471Z,2.35
2023-04-18T10:01:50.957Z,2.33
2023-04-18T10:04:54.928Z,3.30
2023-04-18T10:07:57.575Z,3.40
2023-04-18T10:10:59.559Z,3.80
2023-04-18T10:14:04.570Z,3.70
2023-04-18T10:17:06.997Z,3.30
2023-04-18T10:20:12.722Z,3.17
2023-04-18T10:23:36.268Z,3.90
2023-04-18T10:26:47.276Z,3.70
2023-04-18T10:29:54.010Z,3.50
2023-04-18T10:32:56.209Z,3.00
2023-04-18T10:36:01.699Z,3.58
2023-04-18T10:39:23.784Z,3.53
2023-04-18T10:42:47.473Z,2.50
2023-04-18T10:46:17.377Z,2.92
2023-04-18T10:49:33.532Z,4.05
2023-04-18T10:52:35.617Z,3.20
2023-04-18T10:55:42.732Z,3.30
2023-04-18T10:58:51.195Z,4.13
2023-04-18T11:01:57.260Z,3.12
2023-04-18T11:05:01.709Z,2.20
2023-04-18T11:08:03.812Z,2.47
2023-04-18T11:11:09.508Z,3.40
2023-04-18T11:14:11.862Z,3.27
2023-04-18T11:17:17.907Z,3.75
2023-04-18T11:20:20.019Z,3.87
2023-04-18T11:23:25.580Z,3.47
2023-04-18T11:26:27.659Z,2.70
2023-04-18T11:29:29.719Z,2.53
2023-04-18T11:32:34.600Z,4.12
2023-04-18T11:35:43.992Z,4.15
2023-04-18T11:38:46.252Z,3.33
2023-04-18T11:41:51.256Z,3.20
2023-04-18T11:44:53.312Z,3.53
2023-04-18T11:47:59.901Z,4.20
2023-04-18T11:51:01.871Z,3.40
2023-04-18T11:54:04.012Z,3.25
2023-04-18T11:57:07.615Z,4.60
2023-04-18T12:00:12.415Z,2.90
2023-04-18T12:03:16.787Z,3.72
2023-04-18T12:06:19.035Z,4.72
2023-04-18T12:09:22.568Z,4.93
2023-04-18T12:12:24.519Z,4.80
2023-04-18T12:15:28.709Z,4.73
2023-04-18T12:18:31.608Z,4.20
2023-04-18T12:21:33.755Z,4.87
2023-04-18T12:24:36.191Z,4.40
2023-04-18T12:27:52.557Z,4.10
2023-04-18T12:30:54.553Z,4.07
2023-04-18T12:34:00.097Z,4.40
2023-04-18T12:37:03.692Z,4.37
2023-04-18T12:40:07.285Z,5.60
2023-04-18T12:43:09.760Z,4.23
2023-04-18T12:46:11.690Z,5.00
2023-04-18T12:49:13.647Z,4.53
2023-04-18T12:52:16.293Z,4.70
2023-04-18T12:55:18.318Z,4.32
2023-04-18T12:58:20.883Z,5.20
2023-04-18T13:01:23.010Z,4.50
2023-04-18T13:04:25.550Z,5.32
2023-04-18T13:07:27.633Z,3.08
2023-04-18T13:10:29.667Z,4.28
2023-04-18T13:13:33.395Z,4.00
2023-04-18T13:16:36.555Z,4.43
2023-04-18T13:19:38.557Z,4.37
2023-04-18T13:22:41.961Z,4.55
2023-04-18T13:25:44.301Z,3.33
2023-04-18T13:28:46.613Z,2.33
2023-04-18T13:31:48.744Z,3.60
2023-04-18T13:34:51.312Z,3.12
2023-04-18T13:37:53.291Z,3.30
2023-04-18T13:41:08.484Z,3.05
2023-04-18T13:44:13.324Z,2.85
2023-04-18T13:47:15.256Z,3.07
2023-04-18T13:50:17.507Z,3.55
2023-04-18T13:53:21.040Z,3.50
2023-04-18T13:56:23.032Z,3.08
2023-04-18T13:59:25.857Z,3.00
2023-04-18T14:02:28.435Z,2.77
2023-04-18T14:05:31.971Z,3.30
2023-04-18T14:08:33.849Z,3.40
2023-04-18T14:11:35.875Z,3.03
2023-04-18T14:14:37.904Z,3.40
2023-04-18T14:17:39.874Z,3.30
2023-04-18T14:20:41.912Z,2.80
2023-04-18T14:23:43.881Z,3.20
2023-04-18T14:26:45.751Z,2.72
2023-04-18T14:29:48.979Z,2.80
2023-04-18T14:32:50.989Z,2.83
2023-04-18T14:35:53.030Z,1.98
2023-04-18T14:38:55.227Z,2.30
2023-04-18T14:41:58.047Z,2.60
2023-04-18T14:45:00.284Z,2.67
2023-04-18T14:48:02.450Z,2.77
2023-04-18T14:51:04.682Z,2.17
2023-04-18T14:54:06.677Z,2.60
2023-04-18T14:57:10.249Z,3.22
2023-04-18T15:00:14.661Z,3.12
2023-04-18T15:03:17.230Z,2.63
2023-04-18T15:06:19.509Z,2.60
2023-04-18T15:09:25.232Z,3.15
2023-04-18T15:12:27.381Z,3.30
2023-04-18T15:15:30.659Z,3.60
2023-04-18T15:18:32.664Z,3.03
2023-04-18T15:21:34.622Z,3.28
2023-04-18T15:24:37.379Z,2.67
2023-04-18T15:27:39.251Z,2.78
2023-04-18T15:30:41.471Z,3.17
2023-04-18T15:33:43.472Z,3.23
2023-04-18T15:36:47.356Z,4.03
2023-04-18T15:39:49.315Z,2.42
2023-04-18T15:42:53.889Z,3.85
2023-04-18T15:45:55.853Z,4.10
2023-04-18T15:48:58.020Z,3.57
2023-04-18T15:52:00.312Z,4.65
2023-04-18T15:55:02.428Z,3.40
2023-04-18T15:58:05.120Z,4.15
2023-04-18T16:01:07.818Z,4.20
2023-04-18T16:04:09.904Z,3.20
2023-04-18T16:07:12.196Z,5.10
2023-04-18T16:10:15.401Z,6.20
2023-04-18T16:13:17.424Z,6.00
2023-04-18T16:16:19.425Z,5.50
2023-04-18T16:19:21.329Z,6.10
2023-04-18T16:22:23.377Z,5.00
2023-04-18T16:25:25.654Z,5.50
2023-04-18T16:28:27.565Z,6.03
2023-04-18T16:31:29.659Z,4.40
2023-04-18T16:34:32.457Z,5.50
2023-04-18T16:37:34.410Z,5.25
2023-04-18T16:40:36.521Z,5.20
2023-04-18T16:43:38.748Z,4.97
2023-04-18T16:46:40.815Z,4.82
2023-04-18T16:49:44.940Z,5.33
2023-04-18T16:52:47.194Z,6.12
2023-04-18T16:55:53.235Z,5.60
2023-04-18T16:58:55.513Z,4.53
2023-04-18T17:01:59.807Z,6.07
2023-04-18T17:05:02.668Z,6.10
2023-04-18T17:08:05.542Z,5.62
2023-04-18T17:11:07.987Z,5.93
2023-04-18T17:14:10.549Z,6.10
2023-04-18T17:17:12.961Z,6.20
2023-04-18T17:20:16.266Z,6.50
2023-04-18T17:23:18.399Z,7.53
2023-04-18T17:26:21.828Z,5.10
2023-04-18T17:29:26.138Z,5.95
2023-04-18T17:32:29.190Z,5.80
2023-04-18T17:35:31.139Z,5.77
2023-04-18T17:38:33.299Z,4.57
2023-04-18T17:41:37.887Z,6.40
2023-04-18T17:44:40.357Z,6.03
2023-04-18T17:47:43.774Z,5.85
2023-04-18T17:50:46.295Z,5.93
2023-04-18T17:53:48.579Z,5.78
2023-04-18T17:56:51.476Z,6.18
2023-04-18T17:59:54.438Z,5.72
2023-04-18T18:02:57.751Z,6.07
2023-04-18T18:06:00.439Z,3.37
2023-04-18T18:09:03.381Z,4.43
2023-04-18T18:12:06.496Z,5.72
2023-04-18T18:15:09.991Z,5.78
2023-04-18T18:18:12.561Z,3.73
2023-04-18T18:21:15.518Z,6.17
2023-04-18T18:24:19.280Z,5.40
2023-04-18T18:27:23.207Z,6.00
2023-04-18T18:30:26.548Z,6.60
2023-04-18T18:33:29.324Z,5.73
2023-04-18T18:36:31.732Z,6.57
2023-04-18T18:39:34.484Z,5.97
2023-04-18T18:42:37.575Z,5.85
2023-04-18T18:45:40.418Z,5.82
2023-04-18T18:48:43.514Z,5.33
2023-04-18T18:51:47.090Z,5.57
2023-04-18T18:54:51.688Z,5.60
2023-04-18T18:57:54.334Z,5.22
2023-04-18T19:00:57.502Z,4.95
2023-04-18T19:03:59.959Z,5.33
2023-04-18T19:07:02.708Z,4.80
2023-04-18T19:10:07.164Z,5.72
2023-04-18T19:13:11.774Z,4.30
2023-04-18T19:16:14.274Z,4.87
2023-04-18T19:19:18.014Z,5.60
2023-04-18T19:22:21.355Z,4.80
2023-04-18T19:25:24.510Z,5.40
2023-04-18T19:28:27.531Z,4.55
2023-04-18T19:31:30.905Z,5.80
2023-04-18T19:34:36.677Z,6.03
2023-04-18T19:37:40.916Z,5.50
2023-04-18T19:40:43.992Z,4.87
2023-04-18T19:43:46.801Z,5.60
2023-04-18T19:46:50.006Z,5.78
2023-04-18T19:49:52.843Z,5.73
2023-04-18T19:52:56.877Z,5.50
2023-04-18T19:55:59.588Z,5.60
2023-04-18T19:59:02.289Z,5.47
2023-04-18T20:02:06.581Z,5.53
2023-04-18T20:05:10.182Z,4.97
2023-04-18T20:08:13.004Z,5.70
2023-04-18T20:11:15.300Z,5.30
2023-04-18T20:14:18.607Z,4.70
2023-04-18T20:17:21.804Z,4.47
2023-04-18T20:20:24.393Z,4.60
2023-04-18T20:23:27.179Z,4.93
2023-04-18T20:26:29.877Z,4.37
2023-04-18T20:29:32.330Z,3.80
2023-04-18T20:32:35.201Z,3.22
2023-04-18T20:35:38.280Z,2.93
2023-04-18T20:38:41.269Z,2.30
2023-04-18T20:41:46.957Z,2.40
2023-04-18T20:44:51.943Z,2.50
2023-04-18T20:47:54.133Z,3.40
2023-04-18T20:50:56.985Z,3.30
2023-04-18T20:53:59.643Z,3.50
2023-04-18T20:57:02.867Z,3.60
2023-04-18T21:00:08.660Z,3.30
2023-04-18T21:03:14.499Z,1.80
2023-04-18T21:06:19.264Z,2.90
2023-04-18T21:09:21.622Z,2.13
2023-04-18T21:12:23.971Z,2.22
2023-04-18T21:15:26.383Z,2.05
2023-04-18T21:18:29.530Z,1.87
2023-04-18T21:21:31.700Z,2.10
2023-04-18T21:24:33.804Z,2.00
2023-04-18T21:27:35.998Z,1.42
2023-04-18T21:30:38.007Z,1.65
2023-04-18T21:33:39.962Z,1.90
2023-04-18T21:36:41.894Z,1.87
2023-04-18T21:39:44.316Z,2.00
2023-04-18T21:42:47.756Z,2.17
2023-04-18T21:45:51.440Z,2.15
2023-04-18T21:48:53.596Z,2.12
2023-04-18T21:51:55.719Z,2.10
2023-04-18T21:54:59.253Z,1.83
2023-04-18T21:58:01.213Z,2.00
2023-04-18T22:01:03.405Z,1.67
2023-04-18T22:04:06.208Z,2.00
2023-04-18T22:07:09.324Z,2.17
2023-04-18T22:10:12.018Z,1.93
2023-04-18T22:13:13.947Z,2.12
2023-04-18T22:16:17.620Z,2.62
2023-04-18T22:19:20.338Z,2.53
2023-04-18T22:22:22.450Z,2.90
2023-04-18T22:25:24.388Z,2.00
2023-04-18T22:28:28.101Z,2.30
2023-04-18T22:31:30.297Z,2.40
2023-04-18T22:34:32.204Z,2.50
2023-04-18T22:37:34.159Z,2.37
2023-04-18T22:40:36.204Z,2.70
2023-04-18T22:43:38.172Z,2.78
2023-04-18T22:46:40.909Z,2.78
2023-04-18T22:49:42.904Z,2.80
2023-04-18T22:52:45.219Z,3.40
2023-04-18T22:55:47.126Z,2.93
2023-04-18T22:58:49.157Z,2.92
2023-04-18T23:01:51.085Z,3.78
2023-04-18T23:04:53.415Z,3.28
2023-04-18T23:07:56.525Z,2.90
2023-04-18T23:10:59.753Z,3.30
2023-04-18T23:14:02.372Z,3.37
2023-04-18T23:17:04.443Z,3.95
2023-04-18T23:20:10.934Z,3.50
2023-04-18T23:23:13.059Z,4.13
2023-04-18T23:26:15.832Z,4.17
2023-04-18T23:29:18.337Z,4.47
2023-04-18T23:32:20.299Z,4.10
2023-04-18T23:35:22.455Z,4.12
2023-04-18T23:38:25.008Z,4.27
2023-04-18T23:45:06.097Z,4.50
2023-04-18T23:48:08.079Z,4.47
2023-04-18T23:51:10.124Z,4.82
2023-04-18T23:54:31.200Z,5.03
2023-04-18T23:57:33.144Z,4.00
